Time;durP1;ratioP1;P1;durP2;ratioP2;P2;SDS_P1;SDS_P2;PMS_P1;PMS_P2;Temp;Humidity;BMP_temperature;BMP_pressure;BME280_temperature;BME280_humidity;BME280_pressure;Samples;Min_cycle;Max_cycle;Signal;HPM_P1;HPM_P2
2022/03/09 00:01:35;;;;;;;3.35;3.05;;;20.50;42.80;;;;;;4962095;28;20596;-68
2022/03/09 00:04:01;;;;;;;3.25;2.95;;;20.50;42.70;;;;;;4962338;28;20191;-67
2022/03/09 00:06:27;;;;;;;4.88;3.58;;;20.50;42.70;;;;;;4962676;28;20181;-68
2022/03/09 00:08:53;;;;;;;3.60;3.15;;;20.50;42.70;;;;;;4978269;28;20211;-67
2022/03/09 00:11:19;;;;;;;3.10;2.75;;;20.50;42.60;;;;;;4961871;28;20192;-67
2022/03/09 00:13:45;;;;;;;3.63;3.20;;;20.50;42.40;;;;;;4978114;28;20217;-67
2022/03/09 00:16:11;;;;;;;3.40;3.10;;;20.40;42.50;;;;;;4962134;28;20188;-67
2022/03/09 00:18:37;;;;;;;3.92;3.08;;;20.50;42.30;;;;;;4995478;28;20595;-68
2022/03/09 00:21:03;;;;;;;3.78;3.13;;;20.50;42.40;;;;;;4961835;28;20189;-68
2022/03/09 00:23:28;;;;;;;3.20;2.67;;;20.50;42.30;;;;;;4978062;28;20189;-67
2022/03/09 00:25:54;;;;;;;3.83;3.05;;;20.40;42.50;;;;;;4978302;28;20173;-68
2022/03/09 00:28:20;;;;;;;3.95;3.20;;;20.40;42.40;;;;;;4961727;28;20220;-68
2022/03/09 00:30:46;;;;;;;3.08;2.78;;;20.40;42.40;;;;;;4961956;28;20275;-67
2022/03/09 00:33:12;;;;;;;3.17;2.80;;;20.40;42.50;;;;;;4961547;28;20415;-68
2022/03/09 00:35:42;;;;;;;3.15;2.85;;;20.50;42.70;;;;;;4962053;28;20220;-68
2022/03/09 00:38:08;;;;;;;3.92;2.92;;;20.50;42.60;;;;;;4977915;28;20170;-68
2022/03/09 00:40:34;;;;;;;3.80;3.35;;;20.50;42.70;;;;;;4961887;28;20308;-67
2022/03/09 00:43:00;;;;;;;3.00;2.80;;;20.50;43.20;;;;;;4961770;28;20236;-67
2022/03/09 00:45:26;;;;;;;3.65;3.25;;;20.50;42.60;;;;;;4977620;28;20183;-68
2022/03/09 00:47:52;;;;;;;3.85;2.95;;;20.50;42.70;;;;;;4961769;28;20750;-68
2022/03/09 00:50:18;;;;;;;3.30;2.80;;;20.40;42.60;;;;;;4977687;28;20197;-68
2022/03/09 00:52:45;;;;;;;2.95;2.63;;;20.50;42.80;;;;;;4985834;28;20218;-68
2022/03/09 00:55:10;;;;;;;3.55;2.88;;;20.50;42.60;;;;;;5014331;28;20207;-68
2022/03/09 00:57:36;;;;;;;3.72;2.80;;;20.40;42.60;;;;;;5013237;28;20176;-67
2022/03/09 01:00:04;;;;;;;2.95;2.65;;;20.50;42.50;;;;;;5013300;28;20180;-67
2022/03/09 01:02:29;;;;;;;3.40;3.10;;;20.50;42.60;;;;;;4980788;28;20231;-67
2022/03/09 01:04:55;;;;;;;3.05;2.65;;;20.50;42.50;;;;;;5014293;28;20672;-67
2022/03/09 01:07:22;;;;;;;3.65;2.95;;;20.40;42.30;;;;;;4996657;28;20191;-68
2022/03/09 01:09:49;;;;;;;3.17;2.88;;;20.40;42.30;;;;;;4996663;28;20187;-68
2022/03/09 01:12:14;;;;;;;2.80;2.60;;;20.40;42.30;;;;;;5012915;28;20207;-67
2022/03/09 01:14:40;;;;;;;3.50;3.03;;;20.40;42.00;;;;;;5014333;28;20204;-68
2022/03/09 01:17:06;;;;;;;3.17;2.88;;;20.40;42.20;;;;;;5014089;28;20283;-68
2022/03/09 01:19:32;;;;;;;4.05;3.00;;;20.40;42.40;;;;;;4996344;28;20188;-68
2022/03/09 01:21:57;;;;;;;2.90;2.67;;;20.40;42.30;;;;;;4996179;28;20208;-68
2022/03/09 01:24:23;;;;;;;3.42;2.55;;;20.40;42.30;;;;;;5013849;28;20192;-68
2022/03/09 01:26:49;;;;;;;2.95;2.47;;;20.40;42.30;;;;;;4980332;28;20195;-68
2022/03/09 01:29:15;;;;;;;2.63;2.42;;;20.40;42.40;;;;;;4996220;28;20197;-68
2022/03/09 01:31:40;;;;;;;2.65;2.45;;;20.40;42.60;;;;;;5012385;28;20204;-68
2022/03/09 01:34:06;;;;;;;2.95;2.70;;;20.40;42.50;;;;;;5012493;28;20248;-68
2022/03/09 01:36:32;;;;;;;2.97;2.38;;;20.40;42.50;;;;;;4992355;28;20211;-68
2022/03/09 01:38:58;;;;;;;2.45;2.25;;;20.40;42.40;;;;;;4976634;28;20267;-68
2022/03/09 01:41:23;;;;;;;2.65;2.42;;;20.40;42.40;;;;;;4993803;28;20212;-68
2022/03/09 01:44:17;;;;;;;2.60;2.40;;;20.40;42.50;;;;;;4960544;28;20247;-68
2022/03/09 01:46:46;;;;;;;3.15;2.80;;;20.40;42.50;;;;;;4976535;28;20252;-68
2022/03/09 01:49:12;;;;;;;3.75;2.42;;;20.40;42.40;;;;;;4994102;28;20192;-68
2022/03/09 01:51:42;;;;;;;2.67;2.47;;;20.40;42.30;;;;;;4959960;28;20358;-68
2022/03/09 01:54:09;;;;;;;2.80;2.60;;;20.40;42.00;;;;;;4960067;28;20610;-68
2022/03/09 01:56:36;;;;;;;4.20;3.33;;;20.40;42.30;;;;;;4960207;28;20550;-68
2022/03/09 01:59:08;;;;;;;2.92;2.63;;;20.30;41.80;;;;;;4959884;28;20192;-68
2022/03/09 02:01:34;;;;;;;3.45;2.65;;;20.40;42.20;;;;;;4959213;28;20200;-68
2022/03/09 02:04:02;;;;;;;2.58;2.38;;;20.30;42.10;;;;;;4960001;28;20189;-67
2022/03/09 02:06:32;;;;;;;2.75;2.55;;;20.30;42.20;;;;;;4976190;28;20191;-67
2022/03/09 02:11:45;;;;;;;2.85;2.60;;;20.30;42.20;;;;;;4976088;28;20252;-68
2022/03/09 02:14:31;;;;;;;2.60;2.35;;;20.30;42.30;;;;;;4959955;28;20295;-67
2022/03/09 02:17:01;;;;;;;3.40;2.25;;;20.30;42.30;;;;;;4976030;28;20535;-67
2022/03/09 02:19:27;;;;;;;2.85;2.60;;;20.30;42.20;;;;;;4975852;28;20231;-67
2022/03/09 02:22:04;;;;;;;3.25;2.75;;;20.30;42.10;;;;;;4943857;28;20246;-68
2022/03/09 02:24:30;;;;;;;3.03;2.40;;;20.30;42.00;;;;;;4960012;28;20275;-67
2022/03/09 02:26:56;;;;;;;3.78;2.90;;;20.30;42.10;;;;;;4976002;28;20224;-67
2022/03/09 02:29:21;;;;;;;2.95;2.65;;;20.30;41.90;;;;;;4993256;28;20227;-68
2022/03/09 02:31:47;;;;;;;3.35;2.78;;;20.30;41.90;;;;;;4959521;28;20213;-68
2022/03/09 02:34:13;;;;;;;3.15;2.85;;;20.30;41.90;;;;;;4975944;28;20216;-68
2022/03/09 02:36:39;;;;;;;2.70;2.50;;;20.30;41.80;;;;;;4959659;28;20211;-68
2022/03/09 02:39:05;;;;;;;3.03;2.72;;;20.30;41.80;;;;;;4993086;28;20185;-68
2022/03/09 02:41:33;;;;;;;2.90;2.08;;;20.30;41.90;;;;;;4975370;28;20197;-67
2022/03/09 02:44:04;;;;;;;2.55;2.35;;;20.20;41.80;;;;;;4993227;28;20184;-68
2022/03/09 02:46:29;;;;;;;3.25;2.30;;;20.30;42.10;;;;;;4956505;28;20178;-68
2022/03/09 02:48:55;;;;;;;2.97;2.60;;;20.30;42.20;;;;;;4956136;28;20677;-68
2022/03/09 02:51:22;;;;;;;3.20;2.90;;;20.30;42.20;;;;;;4973253;28;20675;-68
2022/03/09 02:53:48;;;;;;;2.70;2.50;;;20.30;42.10;;;;;;4956135;28;20206;-67
2022/03/09 02:56:16;;;;;;;3.25;2.30;;;20.30;42.20;;;;;;4956426;28;20181;-68
2022/03/09 02:58:44;;;;;;;3.03;2.40;;;20.30;42.10;;;;;;4956365;28;20189;-67
2022/03/09 03:01:12;;;;;;;2.53;2.33;;;20.30;42.20;;;;;;4956049;28;20196;-68
2022/03/09 03:03:40;;;;;;;2.67;2.38;;;20.30;42.10;;;;;;4973384;28;20655;-68
2022/03/09 03:06:06;;;;;;;2.60;2.40;;;20.30;42.10;;;;;;4940577;28;20244;-67
2022/03/09 03:08:33;;;;;;;4.20;2.40;;;20.30;42.10;;;;;;4973323;28;20188;-67
2022/03/09 03:11:00;;;;;;;2.88;2.67;;;20.30;41.90;;;;;;4973180;28;20208;-68
2022/03/09 03:13:27;;;;;;;3.28;3.00;;;20.30;41.80;;;;;;4973302;28;20193;-67
2022/03/09 03:15:54;;;;;;;2.80;2.60;;;20.20;41.80;;;;;;4955943;28;20193;-68
2022/03/09 03:18:20;;;;;;;3.15;2.67;;;20.30;41.80;;;;;;4957888;28;20177;-67
2022/03/09 03:20:45;;;;;;;2.95;2.40;;;20.20;41.80;;;;;;4959888;28;20260;-68
2022/03/09 03:23:11;;;;;;;3.30;2.70;;;20.20;41.80;;;;;;4959796;28;20212;-67
2022/03/09 03:25:37;;;;;;;2.60;2.40;;;20.20;41.80;;;;;;4959688;28;20193;-68
2022/03/09 03:28:03;;;;;;;3.20;2.90;;;20.20;41.80;;;;;;4975800;28;20204;-68
2022/03/09 03:30:29;;;;;;;3.45;2.45;;;20.20;41.80;;;;;;4975584;28;20201;-67
2022/03/09 03:32:55;;;;;;;2.97;2.53;;;20.20;41.80;;;;;;4943791;28;20205;-68
2022/03/09 03:35:21;;;;;;;3.17;2.33;;;20.20;41.80;;;;;;4959758;28;20222;-67
2022/03/09 03:37:46;;;;;;;2.55;2.35;;;20.20;41.80;;;;;;4959842;28;20193;-67
2022/03/09 03:40:12;;;;;;;2.90;2.65;;;20.20;41.80;;;;;;4959605;28;20180;-65
2022/03/09 03:42:38;;;;;;;2.88;2.33;;;20.20;41.90;;;;;;4976649;28;20299;-68
2022/03/09 03:45:05;;;;;;;2.70;2.50;;;20.30;41.90;;;;;;4959485;28;20182;-67
2022/03/09 03:47:30;;;;;;;3.63;2.53;;;20.20;41.80;;;;;;4977711;28;20208;-68
2022/03/09 03:49:56;;;;;;;2.00;1.90;;;20.20;41.80;;;;;;4962316;28;20309;-67
2022/03/09 03:52:22;;;;;;;2.53;2.33;;;20.20;41.80;;;;;;4978317;28;20701;-66
2022/03/09 03:57:44;;;;;;;2.67;2.47;;;20.20;41.80;;;;;;4975119;28;20297;-69
2022/03/09 04:00:12;;;;;;;3.08;2.78;;;20.20;41.80;;;;;;4975195;28;20253;-69
2022/03/09 04:02:38;;;;;;;3.10;2.80;;;20.20;41.80;;;;;;4975251;28;20198;-69
2022/03/09 04:05:05;;;;;;;3.00;2.70;;;20.20;41.80;;;;;;4975159;28;20228;-69
2022/03/09 04:07:32;;;;;;;3.08;2.60;;;20.20;41.80;;;;;;4975098;28;20221;-69
2022/03/09 04:09:58;;;;;;;2.90;2.70;;;20.20;41.80;;;;;;4975278;28;20193;-69
2022/03/09 04:12:24;;;;;;;2.72;2.53;;;20.20;41.80;;;;;;4974968;28;20235;-69
2022/03/09 04:14:52;;;;;;;2.97;2.72;;;20.20;41.80;;;;;;4959163;28;20259;-69
2022/03/09 04:17:18;;;;;;;2.83;2.50;;;20.20;41.80;;;;;;4974978;28;20275;-69
2022/03/09 04:19:45;;;;;;;2.67;2.47;;;20.20;41.80;;;;;;4974972;28;20190;-68
2022/03/09 04:22:10;;;;;;;2.42;2.22;;;20.20;41.80;;;;;;4958720;28;20186;-69
2022/03/09 04:24:37;;;;;;;3.17;2.88;;;20.20;41.80;;;;;;4976062;28;20178;-68
2022/03/09 04:27:04;;;;;;;2.33;2.13;;;20.20;41.80;;;;;;4974824;28;20209;-68
2022/03/09 04:29:29;;;;;;;2.50;2.30;;;20.20;41.80;;;;;;4974501;28;20188;-69
2022/03/09 04:31:55;;;;;;;3.10;2.28;;;20.20;41.80;;;;;;4975869;28;20181;-69
2022/03/09 04:34:21;;;;;;;2.35;2.15;;;20.20;41.80;;;;;;4958538;28;20210;-69
2022/03/09 04:36:47;;;;;;;3.35;2.70;;;20.20;41.80;;;;;;4958748;28;20217;-69
2022/03/09 04:39:12;;;;;;;2.85;2.50;;;20.20;41.80;;;;;;4974641;28;20178;-69
2022/03/09 04:41:38;;;;;;;2.83;2.50;;;20.20;41.80;;;;;;4974537;28;20194;-69
2022/03/09 04:44:04;;;;;;;3.83;2.72;;;20.20;41.80;;;;;;4974543;28;20273;-69
2022/03/09 04:46:30;;;;;;;3.30;3.00;;;20.20;41.80;;;;;;4958406;28;20216;-69
2022/03/09 04:48:56;;;;;;;3.08;2.80;;;20.20;41.80;;;;;;4974491;28;20189;-69
2022/03/09 04:51:22;;;;;;;3.50;3.20;;;20.20;41.80;;;;;;4974448;28;20196;-69
2022/03/09 04:53:47;;;;;;;4.25;3.35;;;20.10;41.70;;;;;;4974464;28;20206;-68
2022/03/09 04:56:15;;;;;;;3.15;2.95;;;20.20;41.80;;;;;;4958381;28;20275;-69
2022/03/09 04:58:41;;;;;;;3.30;3.00;;;20.20;41.80;;;;;;4974468;28;20205;-69
2022/03/09 05:01:06;;;;;;;3.15;2.85;;;20.10;41.60;;;;;;4974147;28;20190;-69
2022/03/09 05:03:34;;;;;;;3.90;3.42;;;20.10;41.50;;;;;;4958124;28;20624;-69
2022/03/09 05:06:02;;;;;;;3.67;3.33;;;20.10;41.40;;;;;;4974354;28;20217;-69
2022/03/09 05:08:27;;;;;;;3.85;3.47;;;20.10;41.50;;;;;;4974293;28;20236;-69
2022/03/09 05:10:53;;;;;;;4.40;3.65;;;20.10;41.60;;;;;;4975106;28;20201;-69
2022/03/09 05:13:20;;;;;;;3.75;3.35;;;20.10;41.60;;;;;;4974039;28;20240;-69
2022/03/09 05:15:47;;;;;;;3.58;3.28;;;20.10;41.70;;;;;;4975101;28;20699;-69
2022/03/09 05:18:13;;;;;;;3.60;3.30;;;20.10;41.70;;;;;;4974104;28;20603;-69
2022/03/09 05:20:39;;;;;;;3.80;3.50;;;20.10;41.70;;;;;;4973918;28;20192;-68
2022/03/09 05:23:05;;;;;;;3.80;3.50;;;20.10;41.70;;;;;;4957697;28;20181;-68
2022/03/09 05:25:32;;;;;;;3.60;3.30;;;20.10;41.70;;;;;;4973520;28;20209;-69
2022/03/09 05:28:01;;;;;;;3.75;3.45;;;20.10;41.70;;;;;;4957561;28;20189;-69
2022/03/09 05:30:28;;;;;;;3.65;3.35;;;20.10;41.70;;;;;;4973496;28;20194;-69
2022/03/09 05:32:54;;;;;;;4.20;3.80;;;20.10;41.70;;;;;;4957562;28;20201;-69
2022/03/09 05:35:20;;;;;;;3.90;3.53;;;20.10;41.70;;;;;;4957680;28;20245;-72
2022/03/09 05:37:46;;;;;;;3.90;3.40;;;20.10;41.70;;;;;;4974725;28;20182;-72
2022/03/09 05:40:14;;;;;;;4.07;3.70;;;20.10;41.70;;;;;;4972633;28;20178;-71
2022/03/09 05:42:41;;;;;;;4.30;3.88;;;20.10;41.70;;;;;;4957163;28;20190;-72
2022/03/09 05:45:07;;;;;;;5.00;4.20;;;20.10;41.60;;;;;;4973428;28;20678;-72
2022/03/09 05:47:33;;;;;;;4.82;4.32;;;20.10;41.40;;;;;;4973151;28;20185;-72
2022/03/09 05:49:59;;;;;;;4.93;3.95;;;20.10;41.40;;;;;;4941087;28;20284;-71
2022/03/09 05:52:25;;;;;;;5.15;4.65;;;20.10;41.30;;;;;;4973967;28;20284;-71
2022/03/09 05:54:51;;;;;;;4.57;4.18;;;20.00;41.20;;;;;;4973237;28;20268;-71
2022/03/09 05:57:22;;;;;;;5.18;4.68;;;20.00;41.20;;;;;;4957200;28;20223;-72
2022/03/09 05:59:49;;;;;;;5.18;4.43;;;20.00;41.00;;;;;;4970587;28;20185;-71
2022/03/09 06:02:15;;;;;;;5.68;4.40;;;20.00;41.20;;;;;;4960893;28;20220;-71
2022/03/09 06:04:42;;;;;;;5.00;4.00;;;20.00;41.20;;;;;;4956946;28;20190;-71
2022/03/09 06:07:08;;;;;;;4.80;4.35;;;20.00;41.30;;;;;;4956913;28;20216;-71
2022/03/09 06:09:34;;;;;;;4.30;3.90;;;20.00;41.30;;;;;;4973104;28;20197;-71
2022/03/09 06:12:00;;;;;;;4.70;4.05;;;20.00;41.40;;;;;;4956449;28;20678;-71
2022/03/09 06:14:26;;;;;;;4.55;4.15;;;20.00;41.60;;;;;;4956906;28;20216;-71
2022/03/09 06:16:51;;;;;;;3.97;3.67;;;20.00;41.40;;;;;;4956594;28;20264;-71
2022/03/09 06:19:18;;;;;;;4.72;3.97;;;20.00;41.40;;;;;;4940199;28;20186;-71
2022/03/09 06:21:45;;;;;;;4.25;3.85;;;20.00;41.40;;;;;;4937183;29;20265;-71
2022/03/09 06:24:12;;;;;;;4.10;3.45;;;20.10;41.50;;;;;;4945758;28;20186;-71
2022/03/09 06:26:38;;;;;;;4.40;4.00;;;20.00;41.50;;;;;;4972773;28;20252;-70
2022/03/09 06:29:05;;;;;;;4.22;3.83;;;20.10;41.50;;;;;;4956823;28;20181;-70
2022/03/09 06:31:32;;;;;;;4.38;3.97;;;20.10;41.50;;;;;;4947468;28;20197;-71
2022/03/09 06:33:58;;;;;;;5.15;4.20;;;20.10;41.40;;;;;;4921651;29;20224;-71
2022/03/09 06:36:24;;;;;;;5.20;4.35;;;20.00;41.30;;;;;;4937418;29;20202;-71
2022/03/09 06:38:50;;;;;;;5.20;4.70;;;20.00;41.10;;;;;;4953576;29;20189;-71
2022/03/09 06:41:17;;;;;;;5.07;4.68;;;20.00;41.20;;;;;;4961089;28;20182;-71
2022/03/09 06:43:43;;;;;;;4.93;4.45;;;20.00;41.10;;;;;;4992035;28;20192;-71
2022/03/09 06:46:10;;;;;;;5.60;5.10;;;20.00;41.00;;;;;;4975921;28;20212;-71
2022/03/09 06:48:35;;;;;;;4.97;4.45;;;20.00;40.90;;;;;;4992058;28;20279;-71
2022/03/09 06:51:02;;;;;;;4.90;4.50;;;20.00;41.00;;;;;;4991829;28;20248;-71
2022/03/09 06:53:28;;;;;;;5.25;4.65;;;20.00;40.90;;;;;;4984422;28;20185;-71
2022/03/09 06:55:53;;;;;;;4.82;4.43;;;20.00;41.00;;;;;;4945259;29;20249;-71
2022/03/09 06:58:19;;;;;;;5.10;4.50;;;20.00;41.00;;;;;;4937055;29;20213;-71
2022/03/09 07:00:45;;;;;;;5.05;4.55;;;20.00;41.00;;;;;;4921339;29;20265;-70
2022/03/09 07:03:11;;;;;;;4.82;4.13;;;20.10;41.10;;;;;;4953318;28;20639;-70
2022/03/09 07:05:37;;;;;;;5.18;3.97;;;20.10;41.10;;;;;;4921131;29;20218;-71
2022/03/09 07:08:03;;;;;;;4.90;4.28;;;20.20;41.20;;;;;;4937015;29;20190;-71
2022/03/09 07:10:29;;;;;;;4.75;4.32;;;20.20;41.10;;;;;;4955409;28;20269;-70
2022/03/09 07:12:55;;;;;;;4.63;4.22;;;20.20;41.10;;;;;;4971889;28;20334;-69
2022/03/09 07:15:21;;;;;;;4.60;4.18;;;20.30;41.10;;;;;;4975111;28;20221;-71
2022/03/09 07:17:48;;;;;;;5.15;4.65;;;20.30;41.20;;;;;;4974438;28;20186;-70
2022/03/09 07:20:16;;;;;;;4.97;4.47;;;20.40;41.10;;;;;;4921422;28;20186;-71
2022/03/09 07:22:43;;;;;;;4.63;4.22;;;20.40;41.10;;;;;;4982914;28;20185;-70
2022/03/09 07:25:10;;;;;;;4.97;4.55;;;20.40;41.00;;;;;;4975098;28;20272;-71
2022/03/09 07:27:37;;;;;;;5.75;5.22;;;20.40;41.10;;;;;;4977145;28;20189;-70
2022/03/09 07:30:04;;;;;;;6.22;5.63;;;20.50;41.00;;;;;;4971698;28;20623;-71
2022/03/09 07:32:30;;;;;;;6.75;5.60;;;20.50;41.00;;;;;;4950910;28;20185;-71
2022/03/09 07:34:56;;;;;;;6.50;5.80;;;20.50;41.00;;;;;;4946909;28;20257;-71
2022/03/09 07:37:22;;;;;;;7.47;5.15;;;20.60;41.00;;;;;;4971826;28;20192;-70
2022/03/09 07:39:48;;;;;;;5.57;4.95;;;20.50;40.90;;;;;;4939734;28;20225;-71
2022/03/09 07:42:14;;;;;;;5.18;4.75;;;20.60;41.00;;;;;;4966057;28;20189;-71
2022/03/09 07:44:40;;;;;;;5.35;4.82;;;20.60;41.00;;;;;;4991356;28;20541;-71
2022/03/09 07:47:06;;;;;;;5.25;4.55;;;20.60;41.00;;;;;;4991268;28;20205;-71
2022/03/09 07:49:33;;;;;;;4.78;4.38;;;20.60;41.00;;;;;;4992303;28;20189;-71
2022/03/09 07:52:00;;;;;;;5.55;4.65;;;20.60;41.00;;;;;;4991984;28;20200;-71
2022/03/09 07:54:27;;;;;;;5.53;5.03;;;20.60;40.90;;;;;;4992333;28;20236;-71
2022/03/09 07:56:53;;;;;;;4.60;4.18;;;20.60;41.00;;;;;;4991136;28;20212;-71
2022/03/09 07:59:19;;;;;;;5.22;4.72;;;20.60;41.00;;;;;;4974944;28;20648;-71
2022/03/09 08:01:45;;;;;;;5.15;4.65;;;20.60;40.90;;;;;;4967971;28;20280;-71
2022/03/09 08:04:11;;;;;;;5.75;4.82;;;20.60;41.00;;;;;;4956932;28;20198;-71
2022/03/09 08:06:40;;;;;;;5.03;4.57;;;20.70;41.00;;;;;;4959262;28;20263;-70
2022/03/09 08:09:07;;;;;;;5.18;4.47;;;20.70;41.00;;;;;;4975165;28;20190;-71
2022/03/09 08:11:33;;;;;;;6.07;4.68;;;20.70;40.90;;;;;;4980721;28;20258;-71
2022/03/09 08:13:58;;;;;;;5.18;4.53;;;20.70;40.90;;;;;;4978269;28;20212;-71
2022/03/09 08:16:24;;;;;;;5.00;4.50;;;20.70;40.80;;;;;;4967523;28;20209;-71
2022/03/09 08:18:50;;;;;;;5.50;5.00;;;20.70;40.80;;;;;;4959079;28;20201;-70
2022/03/09 08:21:17;;;;;;;4.70;4.30;;;20.80;40.80;;;;;;4961457;28;20193;-71
2022/03/09 08:23:43;;;;;;;4.78;4.15;;;20.70;40.80;;;;;;4978437;28;20193;-71
2022/03/09 08:26:09;;;;;;;5.22;4.72;;;20.70;40.80;;;;;;4995430;28;20209;-71
2022/03/09 08:28:35;;;;;;;5.10;4.65;;;20.70;40.80;;;;;;4978015;28;20215;-71
2022/03/09 08:31:01;;;;;;;4.82;4.32;;;20.80;40.80;;;;;;4994078;28;20247;-70
2022/03/09 08:33:26;;;;;;;4.88;4.47;;;20.80;40.80;;;;;;4960850;28;20240;-71
2022/03/09 08:35:53;;;;;;;4.75;4.35;;;20.80;40.80;;;;;;4958333;28;20194;-71
2022/03/09 08:38:19;;;;;;;5.35;4.85;;;20.80;40.80;;;;;;4958767;28;20192;-71
2022/03/09 08:40:45;;;;;;;4.68;4.22;;;20.80;40.90;;;;;;4974585;28;20191;-71
2022/03/09 08:43:11;;;;;;;4.97;4.57;;;20.80;40.80;;;;;;4973529;28;20192;-70
2022/03/09 08:45:37;;;;;;;5.03;4.57;;;20.80;40.70;;;;;;4977618;28;20274;-71
2022/03/09 08:48:05;;;;;;;4.90;4.50;;;20.80;40.80;;;;;;4977670;28;20191;-71
2022/03/09 08:50:32;;;;;;;4.63;4.22;;;20.80;40.90;;;;;;4980175;28;20318;-71
2022/03/09 08:52:58;;;;;;;5.13;4.72;;;20.80;40.90;;;;;;4992492;28;20197;-71
2022/03/09 08:55:24;;;;;;;4.93;4.43;;;20.80;41.50;;;;;;4994726;28;20264;-72
2022/03/09 08:57:50;;;;;;;4.82;4.43;;;20.80;40.80;;;;;;4993763;28;20165;-72
2022/03/09 09:00:16;;;;;;;4.95;4.10;;;20.80;40.80;;;;;;4993987;28;20189;-71
2022/03/09 09:02:42;;;;;;;4.93;4.53;;;20.80;40.90;;;;;;4982040;28;20190;-71
2022/03/09 09:05:09;;;;;;;5.28;4.78;;;20.80;40.90;;;;;;4974061;28;20196;-71
2022/03/09 09:07:35;;;;;;;5.22;4.72;;;20.80;40.90;;;;;;4974380;28;20243;-72
2022/03/09 09:10:01;;;;;;;5.30;4.80;;;20.80;40.80;;;;;;4974256;28;20197;-72
2022/03/09 09:12:26;;;;;;;5.30;4.80;;;20.90;40.90;;;;;;4966489;28;20193;-72
2022/03/09 09:14:52;;;;;;;4.60;4.20;;;20.90;41.00;;;;;;4976897;28;20239;-72
2022/03/09 09:17:18;;;;;;;5.15;4.65;;;20.90;41.00;;;;;;4976888;28;20208;-72
2022/03/09 09:19:44;;;;;;;4.97;4.50;;;20.90;41.00;;;;;;4976927;28;20676;-72
2022/03/09 09:22:09;;;;;;;6.15;4.32;;;20.90;40.90;;;;;;4976506;28;20196;-72
2022/03/09 09:24:35;;;;;;;4.90;4.15;;;20.90;40.90;;;;;;4993286;28;20572;-72
2022/03/09 09:27:01;;;;;;;5.10;4.60;;;20.90;41.00;;;;;;4977200;28;20216;-72
2022/03/09 09:29:27;;;;;;;4.80;4.40;;;20.90;40.90;;;;;;4976936;28;20200;-72
2022/03/09 09:31:53;;;;;;;4.78;4.38;;;20.90;41.00;;;;;;4972041;28;20256;-72
2022/03/09 09:34:19;;;;;;;4.43;4.00;;;20.90;41.00;;;;;;4973397;28;20433;-72
2022/03/09 09:36:46;;;;;;;5.35;4.85;;;20.90;41.00;;;;;;4974676;28;20233;-72
2022/03/09 09:39:14;;;;;;;4.47;4.10;;;20.90;41.00;;;;;;4957312;28;20190;-72
2022/03/09 09:41:48;;;;;;;4.70;4.30;;;20.90;41.00;;;;;;4944030;28;20192;-72
2022/03/09 09:44:15;;;;;;;5.38;4.30;;;20.90;41.00;;;;;;4993103;28;20200;-70
2022/03/09 09:46:42;;;;;;;4.63;4.22;;;20.90;41.00;;;;;;4976439;28;20201;-71
2022/03/09 09:49:10;;;;;;;5.07;4.57;;;20.90;41.00;;;;;;4992903;28;20177;-70
2022/03/09 09:51:37;;;;;;;5.10;4.55;;;20.90;41.00;;;;;;4989909;28;20283;-70
2022/03/09 09:54:05;;;;;;;4.90;4.45;;;20.90;40.80;;;;;;4970781;28;20206;-70
2022/03/09 09:56:36;;;;;;;4.75;4.35;;;20.90;41.00;;;;;;5000718;23;20239;-70
2022/03/09 09:59:02;;;;;;;5.20;4.70;;;20.90;40.90;;;;;;4976682;28;20188;-69
2022/03/09 10:01:28;;;;;;;4.80;4.40;;;20.90;40.90;;;;;;4976272;28;20192;-69
2022/03/09 10:03:54;;;;;;;4.75;4.35;;;20.90;40.90;;;;;;5008929;28;20234;-69
2022/03/09 10:06:21;;;;;;;4.85;4.45;;;20.90;40.80;;;;;;4992831;28;20319;-69
2022/03/09 10:09:11;;;;;;;4.90;4.50;;;20.90;40.90;;;;;;4992414;28;20272;-69
2022/03/09 10:11:52;;;;;;;4.75;4.35;;;20.90;40.90;;;;;;4991970;28;20184;-69
2022/03/09 10:14:51;;;;;;;4.45;4.05;;;20.90;40.90;;;;;;4976063;28;20200;-70
2022/03/09 10:17:24;;;;;;;5.28;4.43;;;20.90;40.80;;;;;;4976397;28;20215;-69
2022/03/09 10:19:58;;;;;;;4.82;4.38;;;20.80;40.60;;;;;;4993435;28;20185;-70
2022/03/09 10:22:33;;;;;;;4.65;4.25;;;20.90;40.80;;;;;;4965124;28;20215;-70
2022/03/09 10:25:18;;;;;;;4.40;4.00;;;20.90;40.80;;;;;;4992238;28;20180;-70
2022/03/09 10:27:54;;;;;;;4.65;4.25;;;20.90;40.80;;;;;;4991666;28;20227;-69
2022/03/09 10:30:24;;;;;;;4.22;3.83;;;20.90;40.80;;;;;;4987541;28;20657;-69
2022/03/09 10:32:59;;;;;;;4.03;3.72;;;20.90;40.80;;;;;;4979948;28;20220;-69
2022/03/09 10:35:31;;;;;;;4.50;4.05;;;20.90;40.80;;;;;;4980938;28;20211;-69
2022/03/09 10:38:06;;;;;;;4.63;4.22;;;20.90;40.70;;;;;;4959973;28;20192;-69
2022/03/09 10:40:40;;;;;;;4.63;4.22;;;20.90;40.70;;;;;;4993074;28;20180;-69
2022/03/09 10:43:29;;;;;;;4.25;3.78;;;20.90;40.80;;;;;;4970032;28;20184;-69
2022/03/09 10:46:05;;;;;;;4.20;3.80;;;20.90;40.80;;;;;;4991870;28;20209;-69
2022/03/09 10:48:49;;;;;;;4.57;4.18;;;20.90;40.90;;;;;;4975989;28;20188;-69
2022/03/09 10:51:41;;;;;;;4.70;4.22;;;20.90;40.90;;;;;;4991575;28;20188;-69
2022/03/09 10:54:26;;;;;;;4.32;3.92;;;20.90;40.90;;;;;;4991660;28;20255;-70
2022/03/09 10:57:12;;;;;;;4.15;3.85;;;20.90;41.00;;;;;;4991486;28;20208;-70
2022/03/09 10:59:50;;;;;;;4.30;3.90;;;20.90;40.80;;;;;;4975213;28;20583;-70
2022/03/09 11:02:21;;;;;;;4.43;4.03;;;20.90;40.90;;;;;;4987103;28;20184;-69
2022/03/09 11:05:17;;;;;;;4.05;3.75;;;20.90;41.50;;;;;;4975776;28;20172;-70
2022/03/09 11:07:44;;;;;;;4.75;4.35;;;20.90;40.90;;;;;;4973497;28;20220;-69
2022/03/09 11:10:12;;;;;;;5.03;4.57;;;20.90;40.80;;;;;;4992829;28;20194;-70
2022/03/09 11:12:39;;;;;;;4.35;3.95;;;20.90;40.80;;;;;;4966226;28;20264;-69
2022/03/09 11:15:07;;;;;;;4.53;4.13;;;20.90;41.00;;;;;;4991538;28;20240;-69
2022/03/09 11:17:34;;;;;;;4.68;4.28;;;20.90;41.00;;;;;;4991525;28;20237;-69
2022/03/09 11:20:00;;;;;;;3.80;3.50;;;20.90;40.90;;;;;;4991858;28;20223;-70
2022/03/09 11:22:26;;;;;;;4.38;3.97;;;20.90;40.90;;;;;;4974977;28;20181;-70
2022/03/09 11:24:53;;;;;;;4.15;3.85;;;20.90;40.90;;;;;;4991522;28;20214;-70
2022/03/09 11:27:20;;;;;;;4.90;3.90;;;20.90;40.90;;;;;;4975533;28;20212;-69
2022/03/09 11:29:46;;;;;;;4.72;4.20;;;20.90;41.00;;;;;;4991383;28;20712;-70
2022/03/09 11:32:14;;;;;;;4.32;3.92;;;20.90;41.00;;;;;;4987307;28;20193;-70
2022/03/09 11:34:45;;;;;;;3.78;3.47;;;20.90;41.10;;;;;;4975128;28;20213;-70
2022/03/09 11:37:36;;;;;;;3.88;3.45;;;20.90;40.90;;;;;;4958955;28;20207;-69
2022/03/09 11:40:10;;;;;;;3.78;3.45;;;20.90;41.00;;;;;;4978021;28;20579;-69
2022/03/09 11:42:41;;;;;;;3.70;3.40;;;20.90;41.00;;;;;;4969615;28;20655;-70
2022/03/09 11:45:29;;;;;;;3.72;3.42;;;20.90;40.80;;;;;;4995317;28;20193;-70
2022/03/09 11:47:56;;;;;;;4.15;3.78;;;20.90;41.00;;;;;;4978907;28;20217;-68
2022/03/09 11:50:22;;;;;;;4.10;3.78;;;20.90;40.90;;;;;;4996271;28;20197;-70
2022/03/09 11:53:07;;;;;;;3.70;3.40;;;20.90;40.90;;;;;;4982739;28;20189;-68
2022/03/09 11:55:35;;;;;;;3.60;3.30;;;20.90;41.00;;;;;;4978566;28;20204;-70
2022/03/09 11:58:08;;;;;;;4.05;3.55;;;20.90;41.00;;;;;;4978771;28;20193;-70
2022/03/09 12:01:02;;;;;;;3.88;3.47;;;20.90;41.10;;;;;;4962808;28;20558;-69
2022/03/09 12:03:39;;;;;;;3.28;3.05;;;20.90;41.00;;;;;;4966918;28;20192;-70
2022/03/09 12:06:42;;;;;;;3.50;3.20;;;20.90;41.00;;;;;;4962599;28;20208;-69
2022/03/09 12:09:09;;;;;;;3.85;3.55;;;20.90;41.00;;;;;;4978294;28;20243;-70
2022/03/09 12:12:09;;;;;;;4.05;3.70;;;20.90;41.00;;;;;;4978316;28;20232;-69
2022/03/09 12:15:13;;;;;;;3.20;2.90;;;20.90;40.80;;;;;;4978346;28;20271;-70
2022/03/09 12:17:44;;;;;;;4.18;3.75;;;20.90;41.00;;;;;;4978324;28;20204;-70
2022/03/09 12:20:31;;;;;;;4.13;3.72;;;20.90;41.00;;;;;;4994616;28;20185;-70
2022/03/09 12:22:56;;;;;;;4.28;3.92;;;20.90;40.90;;;;;;4984664;28;20196;-70
2022/03/09 12:25:47;;;;;;;4.10;3.70;;;20.90;41.00;;;;;;4978196;28;20188;-70
2022/03/09 12:28:25;;;;;;;4.18;3.78;;;20.90;40.90;;;;;;4978308;28;20192;-69
2022/03/09 12:31:20;;;;;;;3.88;3.53;;;20.90;40.90;;;;;;4962149;28;20193;-71
2022/03/09 12:33:54;;;;;;;3.60;3.03;;;20.90;40.90;;;;;;4958670;28;20640;-70
2022/03/09 12:36:25;;;;;;;4.40;4.00;;;20.90;40.80;;;;;;4958646;28;20229;-70
2022/03/09 12:38:54;;;;;;;4.80;4.40;;;20.90;40.80;;;;;;4958716;28;20178;-70
2022/03/09 12:41:30;;;;;;;4.55;4.18;;;20.90;40.90;;;;;;4958212;28;20190;-70
2022/03/09 12:44:05;;;;;;;4.60;4.20;;;20.90;40.80;;;;;;4978055;28;20283;-70
2022/03/09 12:46:35;;;;;;;4.65;4.20;;;20.90;40.80;;;;;;4993912;28;20275;-70
2022/03/09 12:49:16;;;;;;;4.05;3.63;;;20.90;41.00;;;;;;4993592;28;20197;-70
2022/03/09 12:51:55;;;;;;;4.75;3.85;;;20.90;41.00;;;;;;4991750;28;20199;-70
2022/03/09 12:54:35;;;;;;;3.88;3.58;;;20.90;40.80;;;;;;4977739;28;20224;-69
2022/03/09 12:57:24;;;;;;;4.78;4.30;;;20.90;40.90;;;;;;4977128;28;20274;-70
2022/03/09 13:00:13;;;;;;;5.53;5.00;;;20.90;40.90;;;;;;4977727;28;20173;-70
2022/03/09 13:02:52;;;;;;;6.30;5.70;;;20.90;41.00;;;;;;4977264;28;20631;-70